sensor_id;sensor_type;location;lat;lon;timestamp;temperature;humidity
27114;DHT22;14648;49.730;8.614;2023-03-21T00:01:52;11.50;45.70
27114;DHT22;14648;49.730;8.614;2023-03-21T00:04:18;11.50;45.20
27114;DHT22;14648;49.730;8.614;2023-03-21T00:06:45;11.50;45.10
27114;DHT22;14648;49.730;8.614;2023-03-21T00:09:11;11.50;45.10
27114;DHT22;14648;49.730;8.614;2023-03-21T00:11:37;11.50;45.10
27114;DHT22;14648;49.730;8.614;2023-03-21T00:14:03;11.50;45.10
27114;DHT22;14648;49.730;8.614;2023-03-21T00:16:33;11.50;45.10
27114;DHT22;14648;49.730;8.614;2023-03-21T00:19:00;11.50;45.10
27114;DHT22;14648;49.730;8.614;2023-03-21T00:21:28;11.50;45.10
27114;DHT22;14648;49.730;8.614;2023-03-21T00:23:57;11.50;45.10
27114;DHT22;14648;49.730;8.614;2023-03-21T00:26:23;11.50;45.10
27114;DHT22;14648;49.730;8.614;2023-03-21T00:28:50;11.50;45.00
27114;DHT22;14648;49.730;8.614;2023-03-21T00:31:16;11.50;45.10
27114;DHT22;14648;49.730;8.614;2023-03-21T00:33:44;11.50;45.10
27114;DHT22;14648;49.730;8.614;2023-03-21T00:36:10;11.50;45.20
27114;DHT22;14648;49.730;8.614;2023-03-21T00:38:37;11.50;45.20
27114;DHT22;14648;49.730;8.614;2023-03-21T00:41:07;11.40;45.10
27114;DHT22;14648;49.730;8.614;2023-03-21T00:43:35;11.50;45.20
27114;DHT22;14648;49.730;8.614;2023-03-21T00:46:02;11.50;45.20
27114;DHT22;14648;49.730;8.614;2023-03-21T00:48:28;11.40;45.20
27114;DHT22;14648;49.730;8.614;2023-03-21T00:50:56;11.40;45.20
27114;DHT22;14648;49.730;8.614;2023-03-21T00:53:23;11.40;45.30
27114;DHT22;14648;49.730;8.614;2023-03-21T00:55:49;11.30;45.30
27114;DHT22;14648;49.730;8.614;2023-03-21T00:58:16;11.30;45.50
27114;DHT22;14648;49.730;8.614;2023-03-21T01:00:42;11.20;45.60
27114;DHT22;14648;49.730;8.614;2023-03-21T01:03:11;11.20;45.60
27114;DHT22;14648;49.730;8.614;2023-03-21T01:05:40;11.10;45.70
27114;DHT22;14648;49.730;8.614;2023-03-21T01:08:34;11.10;45.80
27114;DHT22;14648;49.730;8.614;2023-03-21T01:11:05;11.00;45.80
27114;DHT22;14648;49.730;8.614;2023-03-21T01:13:34;11.00;45.90
27114;DHT22;14648;49.730;8.614;2023-03-21T01:16:00;10.90;46.00
27114;DHT22;14648;49.730;8.614;2023-03-21T01:18:28;10.90;46.10
27114;DHT22;14648;49.730;8.614;2023-03-21T01:20:56;10.90;46.20
27114;DHT22;14648;49.730;8.614;2023-03-21T01:23:23;10.80;46.10
27114;DHT22;14648;49.730;8.614;2023-03-21T01:25:51;10.80;46.20
27114;DHT22;14648;49.730;8.614;2023-03-21T01:28:18;10.80;46.30
27114;DHT22;14648;49.730;8.614;2023-03-21T01:30:50;10.80;46.40
27114;DHT22;14648;49.730;8.614;2023-03-21T01:33:18;10.80;46.50
27114;DHT22;14648;49.730;8.614;2023-03-21T01:35:44;10.80;46.40
27114;DHT22;14648;49.730;8.614;2023-03-21T01:38:11;10.70;46.50
27114;DHT22;14648;49.730;8.614;2023-03-21T01:40:37;10.80;46.60
27114;DHT22;14648;49.730;8.614;2023-03-21T01:43:05;10.80;46.70
27114;DHT22;14648;49.730;8.614;2023-03-21T01:46:22;10.70;46.80
27114;DHT22;14648;49.730;8.614;2023-03-21T01:51:32;10.70;47.00
27114;DHT22;14648;49.730;8.614;2023-03-21T01:54:00;10.60;47.00
27114;DHT22;14648;49.730;8.614;2023-03-21T01:56:33;10.60;47.10
27114;DHT22;14648;49.730;8.614;2023-03-21T01:59:10;10.60;47.30
27114;DHT22;14648;49.730;8.614;2023-03-21T02:01:38;10.50;47.40
27114;DHT22;14648;49.730;8.614;2023-03-21T02:04:07;10.50;47.40
27114;DHT22;14648;49.730;8.614;2023-03-21T02:06:46;10.50;47.50
27114;DHT22;14648;49.730;8.614;2023-03-21T02:09:19;10.40;47.70
27114;DHT22;14648;49.730;8.614;2023-03-21T02:11:47;10.40;47.70
27114;DHT22;14648;49.730;8.614;2023-03-21T02:14:15;10.40;47.60
27114;DHT22;14648;49.730;8.614;2023-03-21T02:17:04;10.40;47.80
27114;DHT22;14648;49.730;8.614;2023-03-21T02:34:57;10.30;48.20
27114;DHT22;14648;49.730;8.614;2023-03-21T02:40:41;10.30;48.20
27114;DHT22;14648;49.730;8.614;2023-03-21T02:43:24;10.30;48.50
27114;DHT22;14648;49.730;8.614;2023-03-21T02:46:00;10.30;48.40
27114;DHT22;14648;49.730;8.614;2023-03-21T02:48:38;10.20;48.60
27114;DHT22;14648;49.730;8.614;2023-03-21T02:51:14;10.20;48.70
27114;DHT22;14648;49.730;8.614;2023-03-21T02:53:45;10.10;48.80
27114;DHT22;14648;49.730;8.614;2023-03-21T02:56:14;10.20;49.00
27114;DHT22;14648;49.730;8.614;2023-03-21T02:58:41;10.20;49.00
27114;DHT22;14648;49.730;8.614;2023-03-21T03:01:07;10.10;49.10
27114;DHT22;14648;49.730;8.614;2023-03-21T03:03:34;10.10;49.20
27114;DHT22;14648;49.730;8.614;2023-03-21T03:06:08;10.10;49.20
27114;DHT22;14648;49.730;8.614;2023-03-21T03:11:35;10.10;49.60
27114;DHT22;14648;49.730;8.614;2023-03-21T03:14:16;10.20;49.60
27114;DHT22;14648;49.730;8.614;2023-03-21T03:17:20;10.20;49.60
27114;DHT22;14648;49.730;8.614;2023-03-21T03:20:12;10.20;49.60
27114;DHT22;14648;49.730;8.614;2023-03-21T03:23:16;10.20;49.50
27114;DHT22;14648;49.730;8.614;2023-03-21T03:25:53;10.30;49.50
27114;DHT22;14648;49.730;8.614;2023-03-21T03:28:26;10.30;49.50
27114;DHT22;14648;49.730;8.614;2023-03-21T03:30:57;10.30;49.60
27114;DHT22;14648;49.730;8.614;2023-03-21T03:33:25;10.20;49.50
27114;DHT22;14648;49.730;8.614;2023-03-21T03:35:53;10.30;49.70
27114;DHT22;14648;49.730;8.614;2023-03-21T03:38:21;10.20;49.60
27114;DHT22;14648;49.730;8.614;2023-03-21T03:40:57;10.30;49.80
27114;DHT22;14648;49.730;8.614;2023-03-21T03:43:33;10.20;49.80
27114;DHT22;14648;49.730;8.614;2023-03-21T03:46:10;10.20;50.00
27114;DHT22;14648;49.730;8.614;2023-03-21T03:48:48;10.20;50.00
27114;DHT22;14648;49.730;8.614;2023-03-21T03:51:32;10.20;50.20
27114;DHT22;14648;49.730;8.614;2023-03-21T03:54:06;10.10;50.40
27114;DHT22;14648;49.730;8.614;2023-03-21T03:56:35;10.10;50.30
27114;DHT22;14648;49.730;8.614;2023-03-21T03:59:03;10.10;50.30
27114;DHT22;14648;49.730;8.614;2023-03-21T04:01:32;10.10;50.50
27114;DHT22;14648;49.730;8.614;2023-03-21T04:03:59;10.10;50.50
27114;DHT22;14648;49.730;8.614;2023-03-21T04:06:25;10.20;50.50
27114;DHT22;14648;49.730;8.614;2023-03-21T04:08:54;10.20;50.50
27114;DHT22;14648;49.730;8.614;2023-03-21T04:11:21;10.20;50.50
27114;DHT22;14648;49.730;8.614;2023-03-21T04:13:47;10.20;50.50
27114;DHT22;14648;49.730;8.614;2023-03-21T04:16:13;10.20;50.60
27114;DHT22;14648;49.730;8.614;2023-03-21T04:18:41;10.30;50.70
27114;DHT22;14648;49.730;8.614;2023-03-21T04:21:11;10.30;50.60
27114;DHT22;14648;49.730;8.614;2023-03-21T04:23:38;10.30;50.60
27114;DHT22;14648;49.730;8.614;2023-03-21T04:26:05;10.30;50.50
27114;DHT22;14648;49.730;8.614;2023-03-21T04:28:31;10.40;50.50
27114;DHT22;14648;49.730;8.614;2023-03-21T04:30:58;10.40;50.40
27114;DHT22;14648;49.730;8.614;2023-03-21T04:33:24;10.50;50.50
27114;DHT22;14648;49.730;8.614;2023-03-21T04:35:51;10.50;50.40
27114;DHT22;14648;49.730;8.614;2023-03-21T04:38:29;10.50;50.40
27114;DHT22;14648;49.730;8.614;2023-03-21T04:40:56;10.50;50.30
27114;DHT22;14648;49.730;8.614;2023-03-21T04:43:22;10.60;50.30
27114;DHT22;14648;49.730;8.614;2023-03-21T04:45:50;10.60;50.20
27114;DHT22;14648;49.730;8.614;2023-03-21T04:48:18;10.60;50.20
27114;DHT22;14648;49.730;8.614;2023-03-21T04:50:50;10.60;50.20
27114;DHT22;14648;49.730;8.614;2023-03-21T04:53:17;10.50;50.20
27114;DHT22;14648;49.730;8.614;2023-03-21T04:55:44;10.50;50.20
27114;DHT22;14648;49.730;8.614;2023-03-21T04:58:13;10.60;50.20
27114;DHT22;14648;49.730;8.614;2023-03-21T05:00:39;10.60;50.30
27114;DHT22;14648;49.730;8.614;2023-03-21T05:03:07;10.50;50.30
27114;DHT22;14648;49.730;8.614;2023-03-21T05:05:38;10.60;50.30
27114;DHT22;14648;49.730;8.614;2023-03-21T05:08:04;10.50;50.30
27114;DHT22;14648;49.730;8.614;2023-03-21T05:10:33;10.50;50.30
27114;DHT22;14648;49.730;8.614;2023-03-21T05:13:00;10.50;50.40
27114;DHT22;14648;49.730;8.614;2023-03-21T05:15:26;10.50;50.30
27114;DHT22;14648;49.730;8.614;2023-03-21T05:17:53;10.60;50.40
27114;DHT22;14648;49.730;8.614;2023-03-21T05:20:21;10.50;50.40
27114;DHT22;14648;49.730;8.614;2023-03-21T05:22:46;10.60;50.30
27114;DHT22;14648;49.730;8.614;2023-03-21T05:25:16;10.60;50.30
27114;DHT22;14648;49.730;8.614;2023-03-21T05:27:58;10.60;50.30
27114;DHT22;14648;49.730;8.614;2023-03-21T05:30:27;10.60;50.30
27114;DHT22;14648;49.730;8.614;2023-03-21T05:32:53;10.60;50.30
27114;DHT22;14648;49.730;8.614;2023-03-21T05:35:20;10.60;50.30
27114;DHT22;14648;49.730;8.614;2023-03-21T05:37:46;10.60;50.30
27114;DHT22;14648;49.730;8.614;2023-03-21T05:40:16;10.50;50.30
27114;DHT22;14648;49.730;8.614;2023-03-21T05:42:45;10.50;50.30
27114;DHT22;14648;49.730;8.614;2023-03-21T05:45:18;10.50;50.30
27114;DHT22;14648;49.730;8.614;2023-03-21T05:47:44;10.50;50.30
27114;DHT22;14648;49.730;8.614;2023-03-21T05:50:11;10.50;50.40
27114;DHT22;14648;49.730;8.614;2023-03-21T05:52:40;10.50;50.40
27114;DHT22;14648;49.730;8.614;2023-03-21T05:55:07;10.50;50.40
27114;DHT22;14648;49.730;8.614;2023-03-21T05:57:37;10.50;50.40
27114;DHT22;14648;49.730;8.614;2023-03-21T06:00:08;10.40;50.30
27114;DHT22;14648;49.730;8.614;2023-03-21T06:02:36;10.40;50.40
27114;DHT22;14648;49.730;8.614;2023-03-21T06:05:03;10.40;50.40
27114;DHT22;14648;49.730;8.614;2023-03-21T06:07:30;10.40;50.40
27114;DHT22;14648;49.730;8.614;2023-03-21T06:10:00;10.40;50.40
27114;DHT22;14648;49.730;8.614;2023-03-21T06:12:30;10.30;51.00
27114;DHT22;14648;49.730;8.614;2023-03-21T06:14:55;10.30;50.40
27114;DHT22;14648;49.730;8.614;2023-03-21T06:17:22;10.40;50.50
27114;DHT22;14648;49.730;8.614;2023-03-21T06:19:52;10.40;50.60
27114;DHT22;14648;49.730;8.614;2023-03-21T06:22:18;10.40;50.60
27114;DHT22;14648;49.730;8.614;2023-03-21T06:24:44;10.40;50.60
27114;DHT22;14648;49.730;8.614;2023-03-21T06:27:10;10.50;50.70
27114;DHT22;14648;49.730;8.614;2023-03-21T06:29:39;10.50;50.70
27114;DHT22;14648;49.730;8.614;2023-03-21T06:32:07;10.50;50.70
27114;DHT22;14648;49.730;8.614;2023-03-21T06:34:34;10.50;50.70
27114;DHT22;14648;49.730;8.614;2023-03-21T06:37:00;10.60;50.70
27114;DHT22;14648;49.730;8.614;2023-03-21T06:39:29;10.70;50.80
27114;DHT22;14648;49.730;8.614;2023-03-21T06:41:56;10.80;50.80
27114;DHT22;14648;49.730;8.614;2023-03-21T06:44:23;10.80;50.80
27114;DHT22;14648;49.730;8.614;2023-03-21T06:46:50;11.00;50.90
27114;DHT22;14648;49.730;8.614;2023-03-21T06:49:22;11.00;50.90
27114;DHT22;14648;49.730;8.614;2023-03-21T06:51:51;11.20;50.90
27114;DHT22;14648;49.730;8.614;2023-03-21T06:54:18;11.30;50.90
27114;DHT22;14648;49.730;8.614;2023-03-21T06:56:45;11.30;50.90
27114;DHT22;14648;49.730;8.614;2023-03-21T06:59:15;11.30;50.80
27114;DHT22;14648;49.730;8.614;2023-03-21T07:01:41;11.40;50.90
27114;DHT22;14648;49.730;8.614;2023-03-21T07:04:08;11.40;50.80
27114;DHT22;14648;49.730;8.614;2023-03-21T07:06:38;11.40;50.90
27114;DHT22;14648;49.730;8.614;2023-03-21T07:09:08;11.50;50.90
27114;DHT22;14648;49.730;8.614;2023-03-21T07:11:38;11.60;50.90
27114;DHT22;14648;49.730;8.614;2023-03-21T07:14:05;11.60;50.80
27114;DHT22;14648;49.730;8.614;2023-03-21T07:16:34;11.70;51.00
27114;DHT22;14648;49.730;8.614;2023-03-21T07:19:01;11.70;50.90
27114;DHT22;14648;49.730;8.614;2023-03-21T07:21:31;11.80;50.90
27114;DHT22;14648;49.730;8.614;2023-03-21T07:23:59;11.90;50.80
27114;DHT22;14648;49.730;8.614;2023-03-21T07:26:27;11.90;50.90
27114;DHT22;14648;49.730;8.614;2023-03-21T07:28:54;12.00;50.90
27114;DHT22;14648;49.730;8.614;2023-03-21T07:31:23;12.20;50.90
27114;DHT22;14648;49.730;8.614;2023-03-21T07:33:56;12.30;50.90
27114;DHT22;14648;49.730;8.614;2023-03-21T07:36:21;12.30;50.60
27114;DHT22;14648;49.730;8.614;2023-03-21T07:38:50;12.40;50.60
27114;DHT22;14648;49.730;8.614;2023-03-21T07:41:17;12.60;50.50
27114;DHT22;14648;49.730;8.614;2023-03-21T07:43:45;12.70;50.30
27114;DHT22;14648;49.730;8.614;2023-03-21T07:46:17;12.90;50.30
27114;DHT22;14648;49.730;8.614;2023-03-21T07:48:44;13.30;50.20
27114;DHT22;14648;49.730;8.614;2023-03-21T07:51:14;13.50;49.60
27114;DHT22;14648;49.730;8.614;2023-03-21T07:53:41;13.70;49.50
27114;DHT22;14648;49.730;8.614;2023-03-21T07:56:13;13.80;49.30
27114;DHT22;14648;49.730;8.614;2023-03-21T07:58:46;14.00;49.10
27114;DHT22;14648;49.730;8.614;2023-03-21T08:01:19;14.00;48.90
27114;DHT22;14648;49.730;8.614;2023-03-21T08:03:47;13.90;48.90
27114;DHT22;14648;49.730;8.614;2023-03-21T08:06:17;13.90;48.80
27114;DHT22;14648;49.730;8.614;2023-03-21T08:08:43;13.80;48.60
27114;DHT22;14648;49.730;8.614;2023-03-21T08:11:10;13.80;48.70
27114;DHT22;14648;49.730;8.614;2023-03-21T08:13:41;13.70;48.80
27114;DHT22;14648;49.730;8.614;2023-03-21T08:16:11;13.80;48.90
27114;DHT22;14648;49.730;8.614;2023-03-21T08:18:40;13.80;48.80
27114;DHT22;14648;49.730;8.614;2023-03-21T08:21:12;13.90;48.70
27114;DHT22;14648;49.730;8.614;2023-03-21T08:23:38;13.90;48.70
27114;DHT22;14648;49.730;8.614;2023-03-21T08:26:04;13.90;48.50
27114;DHT22;14648;49.730;8.614;2023-03-21T08:28:31;13.90;48.60
27114;DHT22;14648;49.730;8.614;2023-03-21T08:31:05;14.00;48.60
27114;DHT22;14648;49.730;8.614;2023-03-21T08:33:36;14.10;48.40
27114;DHT22;14648;49.730;8.614;2023-03-21T08:36:05;14.10;48.60
27114;DHT22;14648;49.730;8.614;2023-03-21T08:38:31;14.30;48.50
27114;DHT22;14648;49.730;8.614;2023-03-21T08:41:01;14.40;48.20
27114;DHT22;14648;49.730;8.614;2023-03-21T08:43:28;14.50;48.20
27114;DHT22;14648;49.730;8.614;2023-03-21T08:45:59;14.60;48.00
27114;DHT22;14648;49.730;8.614;2023-03-21T08:48:28;14.70;48.10
27114;DHT22;14648;49.730;8.614;2023-03-21T08:50:58;14.90;47.70
27114;DHT22;14648;49.730;8.614;2023-03-21T08:53:27;15.00;47.50
27114;DHT22;14648;49.730;8.614;2023-03-21T08:55:56;15.10;47.50
27114;DHT22;14648;49.730;8.614;2023-03-21T08:58:26;15.30;47.40
27114;DHT22;14648;49.730;8.614;2023-03-21T09:00:55;15.40;47.10
27114;DHT22;14648;49.730;8.614;2023-03-21T09:03:27;15.50;46.80
27114;DHT22;14648;49.730;8.614;2023-03-21T09:05:55;15.60;46.70
27114;DHT22;14648;49.730;8.614;2023-03-21T09:08:29;15.60;46.60
27114;DHT22;14648;49.730;8.614;2023-03-21T09:10:57;15.50;46.40
27114;DHT22;14648;49.730;8.614;2023-03-21T09:13:23;15.40;46.50
27114;DHT22;14648;49.730;8.614;2023-03-21T09:15:51;15.40;46.30
27114;DHT22;14648;49.730;8.614;2023-03-21T09:18:22;15.30;46.10
27114;DHT22;14648;49.730;8.614;2023-03-21T09:21:13;15.40;45.90
27114;DHT22;14648;49.730;8.614;2023-03-21T09:23:42;15.40;45.60
27114;DHT22;14648;49.730;8.614;2023-03-21T09:26:14;15.40;45.60
27114;DHT22;14648;49.730;8.614;2023-03-21T09:28:41;15.30;45.60
27114;DHT22;14648;49.730;8.614;2023-03-21T09:31:12;15.30;45.50
27114;DHT22;14648;49.730;8.614;2023-03-21T09:33:42;15.30;45.60
27114;DHT22;14648;49.730;8.614;2023-03-21T09:36:18;15.40;45.40
27114;DHT22;14648;49.730;8.614;2023-03-21T09:38:57;15.50;45.40
27114;DHT22;14648;49.730;8.614;2023-03-21T09:42:05;15.50;45.30
27114;DHT22;14648;49.730;8.614;2023-03-21T09:44:51;15.60;45.20
27114;DHT22;14648;49.730;8.614;2023-03-21T09:47:28;15.60;44.70
27114;DHT22;14648;49.730;8.614;2023-03-21T09:50:29;15.70;44.80
27114;DHT22;14648;49.730;8.614;2023-03-21T09:53:21;15.70;44.60
27114;DHT22;14648;49.730;8.614;2023-03-21T09:56:00;15.80;44.80
27114;DHT22;14648;49.730;8.614;2023-03-21T09:58:47;15.90;44.70
27114;DHT22;14648;49.730;8.614;2023-03-21T10:01:25;15.90;44.50
27114;DHT22;14648;49.730;8.614;2023-03-21T10:04:19;16.00;44.60
27114;DHT22;14648;49.730;8.614;2023-03-21T10:06:55;16.10;44.40
27114;DHT22;14648;49.730;8.614;2023-03-21T10:09:27;16.20;44.70
27114;DHT22;14648;49.730;8.614;2023-03-21T10:14:29;16.30;44.00
27114;DHT22;14648;49.730;8.614;2023-03-21T10:17:34;16.40;43.80
27114;DHT22;14648;49.730;8.614;2023-03-21T10:20:35;16.50;43.40
27114;DHT22;14648;49.730;8.614;2023-03-21T10:23:18;16.50;43.20
27114;DHT22;14648;49.730;8.614;2023-03-21T10:26:01;16.50;43.20
27114;DHT22;14648;49.730;8.614;2023-03-21T10:28:37;16.50;43.10
27114;DHT22;14648;49.730;8.614;2023-03-21T10:31:08;16.50;43.20
27114;DHT22;14648;49.730;8.614;2023-03-21T10:33:45;16.30;43.00
27114;DHT22;14648;49.730;8.614;2023-03-21T10:36:27;16.20;42.80
27114;DHT22;14648;49.730;8.614;2023-03-21T10:39:05;16.10;42.90
27114;DHT22;14648;49.730;8.614;2023-03-21T10:41:40;16.10;43.00
27114;DHT22;14648;49.730;8.614;2023-03-21T10:44:16;16.10;43.10
27114;DHT22;14648;49.730;8.614;2023-03-21T10:47:07;16.10;43.00
27114;DHT22;14648;49.730;8.614;2023-03-21T10:49:38;16.20;42.90
27114;DHT22;14648;49.730;8.614;2023-03-21T10:52:09;16.20;43.30
27114;DHT22;14648;49.730;8.614;2023-03-21T10:54:43;16.20;43.40
27114;DHT22;14648;49.730;8.614;2023-03-21T10:57:21;16.10;43.40
27114;DHT22;14648;49.730;8.614;2023-03-21T10:59:56;16.00;43.60
27114;DHT22;14648;49.730;8.614;2023-03-21T11:02:50;15.90;43.50
27114;DHT22;14648;49.730;8.614;2023-03-21T11:05:25;15.80;43.70
27114;DHT22;14648;49.730;8.614;2023-03-21T11:08:05;15.70;43.80
27114;DHT22;14648;49.730;8.614;2023-03-21T11:10:54;15.60;44.00
27114;DHT22;14648;49.730;8.614;2023-03-21T11:13:42;15.50;44.30
27114;DHT22;14648;49.730;8.614;2023-03-21T11:19:18;15.30;44.80
27114;DHT22;14648;49.730;8.614;2023-03-21T11:22:05;15.20;45.20
27114;DHT22;14648;49.730;8.614;2023-03-21T11:24:38;15.10;45.50
27114;DHT22;14648;49.730;8.614;2023-03-21T11:27:08;15.10;45.80
27114;DHT22;14648;49.730;8.614;2023-03-21T11:29:46;15.00;46.10
27114;DHT22;14648;49.730;8.614;2023-03-21T11:32:37;15.00;46.70
27114;DHT22;14648;49.730;8.614;2023-03-21T11:35:17;14.90;47.00
27114;DHT22;14648;49.730;8.614;2023-03-21T11:37:58;14.90;47.30
27114;DHT22;14648;49.730;8.614;2023-03-21T11:40:30;14.90;47.40
27114;DHT22;14648;49.730;8.614;2023-03-21T11:43:03;14.80;47.70
27114;DHT22;14648;49.730;8.614;2023-03-21T11:48:42;14.80;48.60
27114;DHT22;14648;49.730;8.614;2023-03-21T11:54:10;14.70;49.80
27114;DHT22;14648;49.730;8.614;2023-03-21T11:56:46;14.70;49.30
27114;DHT22;14648;49.730;8.614;2023-03-21T11:59:32;14.70;49.50
27114;DHT22;14648;49.730;8.614;2023-03-21T12:05:36;14.80;50.30
27114;DHT22;14648;49.730;8.614;2023-03-21T12:08:43;14.80;50.30
27114;DHT22;14648;49.730;8.614;2023-03-21T12:20:38;14.90;50.60
27114;DHT22;14648;49.730;8.614;2023-03-21T12:34:40;15.20;50.50
27114;DHT22;14648;49.730;8.614;2023-03-21T12:39:03;15.30;49.90
27114;DHT22;14648;49.730;8.614;2023-03-21T12:41:24;15.40;49.90
27114;DHT22;14648;49.730;8.614;2023-03-21T12:44:21;15.50;49.70
27114;DHT22;14648;49.730;8.614;2023-03-21T12:47:10;15.60;49.50
27114;DHT22;14648;49.730;8.614;2023-03-21T12:49:57;15.70;49.50
27114;DHT22;14648;49.730;8.614;2023-03-21T12:52:49;15.80;49.30
27114;DHT22;14648;49.730;8.614;2023-03-21T12:55:27;15.90;48.70
27114;DHT22;14648;49.730;8.614;2023-03-21T12:58:04;15.90;48.30
27114;DHT22;14648;49.730;8.614;2023-03-21T13:00:59;16.00;48.20
27114;DHT22;14648;49.730;8.614;2023-03-21T13:04:07;16.00;48.10
27114;DHT22;14648;49.730;8.614;2023-03-21T13:07:04;16.00;48.10
27114;DHT22;14648;49.730;8.614;2023-03-21T13:09:40;16.10;48.10
27114;DHT22;14648;49.730;8.614;2023-03-21T13:20:55;15.80;47.10
27114;DHT22;14648;49.730;8.614;2023-03-21T13:32:45;15.40;46.60
27114;DHT22;14648;49.730;8.614;2023-03-21T13:35:38;15.30;46.80
27114;DHT22;14648;49.730;8.614;2023-03-21T13:38:25;15.20;47.10
27114;DHT22;14648;49.730;8.614;2023-03-21T13:41:14;15.00;47.30
27114;DHT22;14648;49.730;8.614;2023-03-21T13:44:26;14.90;47.90
27114;DHT22;14648;49.730;8.614;2023-03-21T13:47:04;14.70;48.20
27114;DHT22;14648;49.730;8.614;2023-03-21T13:50:21;14.60;48.60
27114;DHT22;14648;49.730;8.614;2023-03-21T13:56:31;14.50;50.50
27114;DHT22;14648;49.730;8.614;2023-03-21T14:01:39;14.40;50.80
27114;DHT22;14648;49.730;8.614;2023-03-21T14:04:18;14.40;52.30
27114;DHT22;14648;49.730;8.614;2023-03-21T14:07:01;14.30;52.50
27114;DHT22;14648;49.730;8.614;2023-03-21T14:12:09;14.30;53.50
27114;DHT22;14648;49.730;8.614;2023-03-21T14:14:59;14.40;54.00
27114;DHT22;14648;49.730;8.614;2023-03-21T14:17:33;14.40;54.80
27114;DHT22;14648;49.730;8.614;2023-03-21T14:20:12;14.40;54.50
27114;DHT22;14648;49.730;8.614;2023-03-21T14:22:46;14.40;54.90
27114;DHT22;14648;49.730;8.614;2023-03-21T14:25:18;14.50;55.20
27114;DHT22;14648;49.730;8.614;2023-03-21T14:27:56;14.50;55.40
27114;DHT22;14648;49.730;8.614;2023-03-21T14:30:29;14.50;55.80
27114;DHT22;14648;49.730;8.614;2023-03-21T14:33:17;14.50;55.60
27114;DHT22;14648;49.730;8.614;2023-03-21T14:35:48;14.40;56.10
27114;DHT22;14648;49.730;8.614;2023-03-21T14:38:20;14.40;55.90
27114;DHT22;14648;49.730;8.614;2023-03-21T14:40:51;14.30;56.50
27114;DHT22;14648;49.730;8.614;2023-03-21T14:43:21;14.20;56.60
27114;DHT22;14648;49.730;8.614;2023-03-21T14:45:50;14.20;56.90
27114;DHT22;14648;49.730;8.614;2023-03-21T14:48:19;14.10;57.10
27114;DHT22;14648;49.730;8.614;2023-03-21T14:50:48;14.10;57.20
27114;DHT22;14648;49.730;8.614;2023-03-21T14:53:37;14.00;57.50
27114;DHT22;14648;49.730;8.614;2023-03-21T14:58:44;13.80;57.80
27114;DHT22;14648;49.730;8.614;2023-03-21T15:01:31;13.70;58.20
27114;DHT22;14648;49.730;8.614;2023-03-21T15:03:59;13.70;58.70
27114;DHT22;14648;49.730;8.614;2023-03-21T15:06:29;13.60;58.20
27114;DHT22;14648;49.730;8.614;2023-03-21T15:09:01;13.60;58.40
27114;DHT22;14648;49.730;8.614;2023-03-21T15:11:38;13.60;58.60
27114;DHT22;14648;49.730;8.614;2023-03-21T15:14:10;13.70;58.60
27114;DHT22;14648;49.730;8.614;2023-03-21T15:16:37;13.70;58.50
27114;DHT22;14648;49.730;8.614;2023-03-21T15:19:04;13.60;58.20
27114;DHT22;14648;49.730;8.614;2023-03-21T15:21:37;13.60;58.50
27114;DHT22;14648;49.730;8.614;2023-03-21T15:24:36;13.60;59.00
27114;DHT22;14648;49.730;8.614;2023-03-21T15:27:07;13.70;59.10
27114;DHT22;14648;49.730;8.614;2023-03-21T15:29:38;13.70;59.00
27114;DHT22;14648;49.730;8.614;2023-03-21T15:32:11;13.70;59.00
27114;DHT22;14648;49.730;8.614;2023-03-21T15:34:40;13.70;59.30
27114;DHT22;14648;49.730;8.614;2023-03-21T15:37:07;13.70;59.20
27114;DHT22;14648;49.730;8.614;2023-03-21T15:39:41;13.70;59.40
27114;DHT22;14648;49.730;8.614;2023-03-21T15:45:01;13.70;60.00
27114;DHT22;14648;49.730;8.614;2023-03-21T15:47:40;13.60;59.80
27114;DHT22;14648;49.730;8.614;2023-03-21T15:50:15;13.60;59.90
27114;DHT22;14648;49.730;8.614;2023-03-21T15:52:50;13.60;60.00
27114;DHT22;14648;49.730;8.614;2023-03-21T15:58:34;13.60;60.60
27114;DHT22;14648;49.730;8.614;2023-03-21T16:01:16;13.60;60.40
27114;DHT22;14648;49.730;8.614;2023-03-21T16:03:46;13.60;60.80
27114;DHT22;14648;49.730;8.614;2023-03-21T16:06:22;13.60;60.80
27114;DHT22;14648;49.730;8.614;2023-03-21T16:09:12;13.50;61.10
27114;DHT22;14648;49.730;8.614;2023-03-21T16:11:51;13.50;60.70
27114;DHT22;14648;49.730;8.614;2023-03-21T16:14:19;13.50;60.30
27114;DHT22;14648;49.730;8.614;2023-03-21T16:16:47;13.40;60.00
27114;DHT22;14648;49.730;8.614;2023-03-21T16:19:14;13.40;59.80
27114;DHT22;14648;49.730;8.614;2023-03-21T16:21:40;13.40;59.60
27114;DHT22;14648;49.730;8.614;2023-03-21T16:24:07;13.40;59.40
27114;DHT22;14648;49.730;8.614;2023-03-21T16:26:40;13.40;59.40
27114;DHT22;14648;49.730;8.614;2023-03-21T16:29:10;13.30;59.50
27114;DHT22;14648;49.730;8.614;2023-03-21T16:31:38;13.30;59.60
27114;DHT22;14648;49.730;8.614;2023-03-21T16:34:03;13.30;59.70
27114;DHT22;14648;49.730;8.614;2023-03-21T16:36:34;13.30;59.80
27114;DHT22;14648;49.730;8.614;2023-03-21T16:39:15;13.30;60.00
27114;DHT22;14648;49.730;8.614;2023-03-21T16:41:45;13.30;60.20
27114;DHT22;14648;49.730;8.614;2023-03-21T16:44:15;13.30;60.10
27114;DHT22;14648;49.730;8.614;2023-03-21T16:46:44;13.30;60.40
27114;DHT22;14648;49.730;8.614;2023-03-21T16:49:23;13.30;60.50
27114;DHT22;14648;49.730;8.614;2023-03-21T16:51:55;13.30;61.00
27114;DHT22;14648;49.730;8.614;2023-03-21T16:54:22;13.30;61.10
27114;DHT22;14648;49.730;8.614;2023-03-21T16:56:50;13.20;61.00
27114;DHT22;14648;49.730;8.614;2023-03-21T16:59:17;13.20;62.00
27114;DHT22;14648;49.730;8.614;2023-03-21T17:01:43;13.20;61.10
27114;DHT22;14648;49.730;8.614;2023-03-21T17:04:14;13.20;61.10
27114;DHT22;14648;49.730;8.614;2023-03-21T17:06:46;13.20;61.20
27114;DHT22;14648;49.730;8.614;2023-03-21T17:09:16;13.20;61.40
27114;DHT22;14648;49.730;8.614;2023-03-21T17:11:44;13.20;61.40
27114;DHT22;14648;49.730;8.614;2023-03-21T17:14:12;13.20;61.40
27114;DHT22;14648;49.730;8.614;2023-03-21T17:16:40;13.20;61.60
27114;DHT22;14648;49.730;8.614;2023-03-21T17:19:18;13.10;61.70
27114;DHT22;14648;49.730;8.614;2023-03-21T17:21:48;13.00;62.10
27114;DHT22;14648;49.730;8.614;2023-03-21T17:24:14;13.00;61.90
27114;DHT22;14648;49.730;8.614;2023-03-21T17:26:40;12.90;62.00
27114;DHT22;14648;49.730;8.614;2023-03-21T17:29:06;12.90;62.10
27114;DHT22;14648;49.730;8.614;2023-03-21T17:31:34;12.90;62.10
27114;DHT22;14648;49.730;8.614;2023-03-21T17:34:01;12.90;63.10
27114;DHT22;14648;49.730;8.614;2023-03-21T17:36:31;12.80;62.70
27114;DHT22;14648;49.730;8.614;2023-03-21T17:38:58;12.80;62.70
27114;DHT22;14648;49.730;8.614;2023-03-21T17:41:25;12.80;62.70
27114;DHT22;14648;49.730;8.614;2023-03-21T17:43:51;12.70;62.80